Pagina principală
METAR-TAF:

METAR-TAF

Aeroporturi :

Pohnpei, Micronezia

Latitudine: 06-59N, longitudine: 158-12E, elevație: 2 m

Observații meteo curente

Raportul a fost făcut în urmă cu 10 ore și 35 de minute, la 04:52 UTC
Vânt 11 kt de la Est/Nord-est
Temperatură 31°C
Umiditate 75%
Presiune 1006 hPa
Vizibilitate: 24.1 km
Nori împrăștiați la o înălțime de 1800 picior, Cumulus congestus.
Nori fragmentați la o înălțime de 13000 picior
Total acoperit la o înălțime de 30000 picior

METAR: PTPN 180452Z 06011KT 15SM SCT018TCU BKN130 OVC300 31/26 A2972 RMK TCU S-SW LAST

Ora: 02:27 (15:27 UTC)

Prognoză

Raportul a fost făcut în urmă cu 10 ore și 5 de minute, la 05:22 UTC
Prognoză valabilă de la 18 ora 06 UTC la 19 ora 06 UTC
Vânt 15 kt de la Est/Nord-est
Vizibilitate: 10 km
Nori împrăștiați la o înălțime de 1800 picior
Nori împrăștiați la o înălțime de 6000 picior
averse în apropiere

TAF: PTPN 180522Z 1806/1906 07015KT P6SM VCSH SCT018 SCT060

Observații și prognoze meteo pentru peste 4.000 de aeroporturi (rapoarte METAR și TAF).

Stațiile disponibile sunt reprezentate pe hartă prin puncte galbene și roșii.

Țineți indicatorul mouse-ului pe punctul dorit pentru a vedea denumirea stației.

Apoi, faceți clic pentru a vedea observațiile și prognozele meteorologice.

Pentru a schimba harta: Pentru mărire, faceți clic pe butoanele verzi cu cruce neagră; pentru micșorare, pe butonul verde cu o liniuță; pentru hărți învecinate, pe săgețile verzi.


METAR-TAF: